KMEI/MEI METAR and TAF weather

Enter ICAO airport designator
Station Type Date Time Source
KMEI METAR 2021/02/24 17:58 UTC NOAA

KMEI 241758Z 21010G17KT 10SM CLR 22/03 A3009 RMK AO2 SLP187 T02170033 10222 20006 58019


Station Type Date Time Source
KMEI Decoded METAR 2021/02/24 17:58 UTC NOAA

MERIDIAN KEY FIELD, MS, United States (KMEI) 32-20N 088-45W 89M
Feb 24, 2021 - 12:58 PM EST / 2021.02.24 1758 UTC
Wind: from the SSW (210 degrees) at 12 MPH (10 KT) gusting to 20 MPH (17 KT):0
Visibility: 10 mile(s):0
Sky conditions: clear
Temperature: 71.1 F (21.7 C)
Dew Point: 37.9 F (3.3 C)
Relative Humidity: 29%
Pressure (altimeter): 30.09 in. Hg (1018 hPa)
Pressure tendency: 0.06 inches (1.9 hPa) lower than three hours ago
ob: KMEI 241758Z 21010G17KT 10SM CLR 22/03 A3009 RMK AO2 SLP187 T02170033 10222 20006 58019
cycle: 18

Station Type Date Time Source
KMEI TAF 2021/02/24 18:45 UTC NOAA

TAF KMEI 241742Z 2418/2518 16003KT P6SM SKC
FM250600 20004KT P6SM -SHRA OVC025
FM251000 33005KT P6SM -RA OVC015
FM251200 02005KT P6SM OVC015

Example: see airport list